Time;durP1;ratioP1;P1;durP2;ratioP2;P2;SDS_P1;SDS_P2;PMS_P1;PMS_P2;Temp;Humidity;BMP_temperature;BMP_pressure;BME280_temperature;BME280_humidity;BME280_pressure;Samples;Min_cycle;Max_cycle;Signal;HPM_P1;HPM_P2
2021/10/25 00:00:05;;;;;;;3.30;2.40;;;5.40;99.90;;;;;;6292549;28;20016;-78
2021/10/25 00:03:06;;;;;;;2.78;2.40;;;;;;;;;;6267116;28;20040;-77
2021/10/25 00:06:07;;;;;;;4.38;2.50;;;;;;;;;;6291706;28;20036;-78
2021/10/25 00:09:08;;;;;;;3.92;2.30;;;5.60;99.90;;;;;;6291859;28;20024;-78
2021/10/25 00:12:09;;;;;;;2.67;2.47;;;;;;;;;;6291943;28;20124;-78
2021/10/25 00:15:10;;;;;;;2.80;2.60;;;5.90;99.90;;;;;;6292162;28;20114;-79
2021/10/25 00:18:10;;;;;;;2.92;2.70;;;5.80;99.90;;;;;;6292192;28;20090;-79
2021/10/25 00:21:11;;;;;;;2.53;2.33;;;5.40;99.90;;;;;;6284778;28;20032;-77
2021/10/25 00:24:13;;;;;;;3.67;2.45;;;5.40;99.90;;;;;;6292012;28;20466;-77
2021/10/25 00:27:14;;;;;;;2.47;2.20;;;;;;;;;;6275243;28;20505;-78
2021/10/25 00:30:14;;;;;;;3.80;2.38;;;5.10;99.90;;;;;;6293392;28;20020;-77
2021/10/25 00:33:15;;;;;;;4.70;2.53;;;;;;;;;;6258394;28;20510;-78
2021/10/25 00:36:16;;;;;;;6.15;2.72;;;;;;;;;;6317435;28;20024;-77
2021/10/25 00:39:18;;;;;;;4.25;2.67;;;4.80;99.90;;;;;;6300488;28;20528;-77
2021/10/25 00:42:19;;;;;;;3.30;2.60;;;;;;;;;;6276395;28;20454;-77
2021/10/25 00:45:20;;;;;;;3.53;2.30;;;5.00;99.90;;;;;;6291267;28;20155;-78
2021/10/25 00:48:21;;;;;;;2.95;2.28;;;;;;;;;;6296633;28;20032;-78
2021/10/25 00:51:22;;;;;;;3.70;2.42;;;;;;;;;;6316363;28;20032;-78
2021/10/25 00:54:22;;;;;;;3.40;2.28;;;5.20;99.90;;;;;;6315799;28;20032;-77
2021/10/25 00:57:23;;;;;;;4.30;3.15;;;5.50;99.90;;;;;;6316120;28;20131;-78
2021/10/25 01:00:24;;;;;;;4.05;2.50;;;5.50;99.90;;;;;;6315761;28;20028;-77
2021/10/25 01:03:26;;;;;;;2.50;2.13;;;;;;;;;;6299322;28;20105;-78
2021/10/25 01:06:26;;;;;;;4.43;2.90;;;;;;;;;;6317174;28;20069;-78
2021/10/25 01:09:28;;;;;;;3.22;2.55;;;;;;;;;;6317107;28;20020;-78
2021/10/25 01:12:28;;;;;;;2.40;2.20;;;5.60;99.90;;;;;;6315459;28;20448;-78
2021/10/25 01:15:29;;;;;;;3.63;2.60;;;5.80;99.90;;;;;;6315848;28;20036;-78
2021/10/25 01:18:30;;;;;;;3.08;2.67;;;;;;;;;;6316800;28;20180;-78
2021/10/25 01:21:31;;;;;;;3.25;2.67;;;5.70;99.90;;;;;;6315919;28;20024;-79
2021/10/25 01:24:31;;;;;;;3.90;2.75;;;5.70;99.90;;;;;;6315864;28;20067;-78
2021/10/25 01:27:32;;;;;;;4.45;3.10;;;5.30;99.90;;;;;;6315284;28;20413;-77
2021/10/25 01:30:33;;;;;;;2.97;2.67;;;;;;;;;;6316300;28;20028;-78
2021/10/25 01:33:34;;;;;;;3.80;2.90;;;5.30;99.90;;;;;;6315233;28;20156;-78
2021/10/25 01:36:35;;;;;;;3.20;2.37;;;;;;;;;;6305204;28;20028;-79
2021/10/25 01:39:36;;;;;;;3.17;2.67;;;5.40;99.90;;;;;;6290713;28;20514;-77
2021/10/25 01:42:37;;;;;;;3.13;2.47;;;5.90;99.90;;;;;;6274558;28;20074;-78
2021/10/25 01:45:38;;;;;;;3.70;2.85;;;5.60;99.90;;;;;;6290796;28;20036;-78
2021/10/25 01:48:38;;;;;;;2.75;2.25;;;5.30;99.90;;;;;;6274828;28;20024;-78
2021/10/25 01:51:39;;;;;;;2.58;2.38;;;5.20;99.90;;;;;;6273778;28;20098;-77
2021/10/25 01:54:40;;;;;;;3.75;2.58;;;5.30;99.90;;;;;;6256860;28;20044;-77
2021/10/25 01:57:40;;;;;;;3.70;3.00;;;5.10;99.90;;;;;;6290665;28;20042;-78
2021/10/25 02:00:42;;;;;;;4.50;2.63;;;;;;;;;;6294904;28;20131;-77
2021/10/25 02:03:42;;;;;;;3.15;2.45;;;4.80;99.90;;;;;;6296920;28;20119;-78
2021/10/25 02:06:43;;;;;;;4.38;2.60;;;4.60;99.90;;;;;;6266844;28;20028;-78
2021/10/25 02:09:44;;;;;;;4.00;2.55;;;4.40;99.90;;;;;;6295593;28;20028;-78
2021/10/25 02:12:45;;;;;;;3.55;2.83;;;;;;;;;;6294518;28;20029;-77
2021/10/25 02:15:46;;;;;;;7.65;3.40;;;;;;;;;;6288684;28;20520;-77
2021/10/25 02:18:47;;;;;;;6.78;3.22;;;4.90;99.90;;;;;;6294899;28;20078;-77
2021/10/25 02:21:48;;;;;;;3.65;3.00;;;5.30;99.90;;;;;;6294659;28;20041;-78
2021/10/25 02:24:49;;;;;;;3.20;2.60;;;5.40;99.90;;;;;;6296697;28;20111;-77
2021/10/25 02:27:50;;;;;;;3.90;3.10;;;;;;;;;;6296570;28;20029;-78
2021/10/25 02:30:52;;;;;;;4.18;2.80;;;;;;;;;;6296425;28;20017;-78
2021/10/25 02:33:53;;;;;;;4.25;2.85;;;5.50;99.90;;;;;;6296233;28;20029;-78
2021/10/25 02:36:53;;;;;;;4.85;3.42;;;5.40;99.90;;;;;;6294567;28;20032;-77
2021/10/25 02:39:54;;;;;;;4.97;2.90;;;;;;;;;;6277177;28;20103;-78
2021/10/25 02:42:55;;;;;;;4.05;3.13;;;5.20;99.90;;;;;;6295861;28;20063;-78
2021/10/25 02:45:57;;;;;;;4.00;3.00;;;;;;;;;;6266049;28;20040;-78
2021/10/25 02:48:58;;;;;;;5.88;3.15;;;5.20;99.90;;;;;;6293891;28;20027;-78
2021/10/25 02:51:59;;;;;;;3.53;2.90;;;5.30;99.90;;;;;;6293952;28;20360;-79
2021/10/25 02:55:00;;;;;;;3.67;3.00;;;;;;;;;;6276732;28;20056;-78
2021/10/25 02:58:01;;;;;;;4.22;2.80;;;;;;;;;;6295871;28;20071;-77
2021/10/25 03:01:01;;;;;;;5.13;2.90;;;5.60;99.90;;;;;;6293885;28;20050;-77
2021/10/25 03:04:03;;;;;;;3.90;2.92;;;5.70;99.90;;;;;;6295879;28;20061;-77
2021/10/25 03:07:04;;;;;;;4.68;2.83;;;;;;;;;;6293932;28;20020;-78
2021/10/25 03:10:05;;;;;;;4.88;2.83;;;6.00;99.90;;;;;;6295685;28;20027;-77
2021/10/25 03:13:07;;;;;;;3.78;2.72;;;;;;;;;;6266396;28;20048;-78
2021/10/25 03:16:08;;;;;;;3.80;2.90;;;;;;;;;;6295637;28;20041;-77
2021/10/25 03:19:08;;;;;;;4.38;3.17;;;5.80;99.90;;;;;;6293623;28;20064;-78
2021/10/25 03:22:11;;;;;;;3.63;2.80;;;;;;;;;;6295829;28;20028;-77
2021/10/25 03:25:11;;;;;;;;;;;5.80;99.90;;;;;;6293765;28;20496;-77
2021/10/25 03:28:12;;;;;;;2.80;2.42;;;5.90;99.90;;;;;;6293647;28;19908;-78
2021/10/25 03:31:12;;;;;;;3.10;2.80;;;5.50;99.90;;;;;;6295041;28;20036;-78
2021/10/25 03:34:13;;;;;;;3.78;2.85;;;5.40;99.90;;;;;;6262171;28;20039;-78
2021/10/25 03:37:15;;;;;;;4.90;3.10;;;;;;;;;;6318913;28;20074;-78
2021/10/25 03:40:15;;;;;;;4.20;3.10;;;5.70;99.90;;;;;;6300430;28;20481;-77
2021/10/25 03:43:17;;;;;;;4.13;3.03;;;5.50;99.90;;;;;;6319030;28;20038;-78
2021/10/25 04:28:24;;;;;;;6.40;3.83;;;;;;;;;;6302645;28;20028;-79
2021/10/25 04:31:25;;;;;;;6.07;3.53;;;;;;;;;;6296840;28;20024;-79
2021/10/25 04:34:26;;;;;;;5.40;3.90;;;6.10;99.90;;;;;;6315840;28;20051;-79
2021/10/25 04:37:27;;;;;;;6.60;3.63;;;;;;;;;;6316200;28;20055;-78
2021/10/25 04:40:28;;;;;;;10.20;7.03;;;;;;;;;;6315283;28;20359;-79
2021/10/25 04:43:28;;;;;;;9.52;5.53;;;6.20;99.90;;;;;;6308089;28;20032;-78
2021/10/25 04:46:29;;;;;;;8.43;6.00;;;;;;;;;;6265380;28;20434;-79
2021/10/25 04:49:30;;;;;;;12.50;7.55;;;;;;;;;;6310554;28;20027;-79
2021/10/25 04:52:31;;;;;;;9.68;5.55;;;;;;;;;;6316425;28;20086;-78
2021/10/25 04:55:32;;;;;;;12.70;8.18;;;6.00;99.90;;;;;;6315465;28;20375;-78
2021/10/25 04:58:32;;;;;;;8.70;6.63;;;6.20;99.90;;;;;;6285516;28;20029;-79
2021/10/25 05:01:33;;;;;;;5.47;4.25;;;5.90;99.90;;;;;;6315168;28;20024;-80
2021/10/25 05:04:34;;;;;;;13.63;9.75;;;6.10;99.90;;;;;;6314485;28;20457;-78
2021/10/25 05:07:34;;;;;;;16.27;8.73;;;6.10;99.90;;;;;;6305164;28;20029;-78
2021/10/25 05:10:35;;;;;;;36.67;21.38;;;6.10;99.90;;;;;;6291087;28;20056;-78
2021/10/25 05:13:35;;;;;;;10.65;8.65;;;6.20;99.90;;;;;;6287001;28;20044;-78
2021/10/25 05:16:36;;;;;;;11.70;8.07;;;6.30;99.90;;;;;;6276723;28;20387;-79
2021/10/25 05:19:37;;;;;;;12.00;8.73;;;6.00;99.90;;;;;;6269474;28;20028;-82
2021/10/25 05:22:38;;;;;;;7.65;4.88;;;6.10;99.90;;;;;;6265987;28;20020;-82
2021/10/25 05:25:40;;;;;;;5.25;3.72;;;5.80;99.90;;;;;;6274998;28;20069;-81
2021/10/25 05:28:41;;;;;;;8.93;5.63;;;;;;;;;;6283250;28;20382;-80
2021/10/25 05:31:43;;;;;;;35.20;19.85;;;;;;;;;;6301199;28;20031;-82
2021/10/25 05:34:43;;;;;;;18.83;9.63;;;5.60;99.90;;;;;;6299063;28;20055;-82
2021/10/25 05:37:44;;;;;;;10.55;6.72;;;5.50;99.90;;;;;;6293886;28;20028;-84
2021/10/25 05:40:45;;;;;;;8.27;5.95;;;5.30;99.90;;;;;;6263410;28;20032;-81
2021/10/25 05:43:45;;;;;;;7.57;5.45;;;5.40;99.90;;;;;;6285081;28;20480;-82
2021/10/25 05:46:46;;;;;;;7.82;5.72;;;;;;;;;;6310294;28;20534;-81
2021/10/25 05:49:47;;;;;;;9.27;5.63;;;5.50;99.90;;;;;;6313862;28;20032;-81
2021/10/25 05:52:48;;;;;;;6.63;5.25;;;;;;;;;;6278856;28;20492;-82
2021/10/25 05:55:49;;;;;;;6.45;4.20;;;5.30;99.90;;;;;;6304593;28;20113;-80
2021/10/25 05:58:50;;;;;;;4.47;3.72;;;5.30;99.90;;;;;;6282149;28;20031;-80
2021/10/25 06:02:13;;;;;;;6.63;3.93;;;;;;;;;;6287410;28;20029;-80
2021/10/25 06:05:14;;;;;;;4.68;3.90;;;5.80;99.90;;;;;;6290446;28;20115;-80
2021/10/25 06:08:15;;;;;;;6.18;5.05;;;5.60;99.90;;;;;;6277762;28;20046;-81
2021/10/25 06:11:16;;;;;;;7.57;4.68;;;5.80;99.90;;;;;;6262304;28;20082;-80
2021/10/25 06:14:26;;;;;;;6.88;5.47;;;;;;;;;;6298576;28;20051;-80
2021/10/25 06:17:39;;;;;;;15.13;9.07;;;5.70;99.90;;;;;;6287062;28;20025;-80
2021/10/25 06:20:40;;;;;;;5.38;4.55;;;5.90;99.90;;;;;;6286444;28;20029;-81
2021/10/25 06:23:40;;;;;;;6.63;4.32;;;5.80;99.90;;;;;;6262456;28;20529;-82
2021/10/25 06:26:42;;;;;;;6.60;4.00;;;;;;;;;;6278816;28;20028;-81
2021/10/25 06:29:43;;;;;;;5.45;3.65;;;;;;;;;;6297657;28;20031;-82
2021/10/25 06:32:44;;;;;;;5.95;3.85;;;5.60;99.90;;;;;;6303769;28;20037;-84
2021/10/25 06:35:50;;;;;;;4.82;4.07;;;;;;;;;;6286639;28;20435;-82
2021/10/25 06:38:57;;;;;;;5.07;4.07;;;5.90;99.90;;;;;;6283555;28;20016;-81
2021/10/25 06:41:58;;;;;;;4.97;4.20;;;5.80;99.90;;;;;;6267654;28;20467;-82
2021/10/25 06:45:00;;;;;;;6.63;4.25;;;6.00;99.90;;;;;;6302130;28;20035;-82
2021/10/25 06:48:01;;;;;;;6.63;4.25;;;5.80;99.90;;;;;;6275271;28;20072;-87
2021/10/25 06:51:02;;;;;;;6.03;4.28;;;6.00;99.90;;;;;;6247928;28;20036;-83
2021/10/25 06:54:02;;;;;;;5.32;3.75;;;6.20;99.90;;;;;;6286896;28;20485;-81
2021/10/25 06:57:03;;;;;;;6.60;3.60;;;;;;;;;;6265441;28;20040;-81
2021/10/25 07:00:07;;;;;;;10.15;5.82;;;7.30;99.90;;;;;;6279179;28;20028;-79
2021/10/25 07:03:07;;;;;;;6.75;4.25;;;8.10;99.90;;;;;;6281421;28;20112;-81
2021/10/25 07:06:14;;;;;;;6.32;3.70;;;9.20;99.90;;;;;;6265071;28;20024;-82
2021/10/25 07:09:16;;;;;;;6.38;4.68;;;;;;;;;;6277549;28;20077;-82
2021/10/25 07:12:16;;;;;;;6.50;3.80;;;10.90;99.90;;;;;;6294564;28;20023;-82
2021/10/25 07:15:18;;;;;;;5.05;4.00;;;11.00;99.90;;;;;;6283955;28;20529;-80
2021/10/25 07:18:40;;;;;;;5.20;4.60;;;11.50;99.90;;;;;;6279786;28;20062;-80
2021/10/25 08:12:00;;;;;;;3.83;3.30;;;16.30;96.40;;;;;;6305838;28;20028;-83
2021/10/25 08:15:07;;;;;;;4.50;3.65;;;17.10;99.90;;;;;;6290182;28;20067;-83
2021/10/25 08:18:30;;;;;;;4.32;3.47;;;17.10;95.40;;;;;;6281344;28;20127;-83
2021/10/25 08:21:30;;;;;;;15.65;11.23;;;17.70;94.50;;;;;;6287041;28;20032;-85
2021/10/25 08:24:32;;;;;;;4.50;3.53;;;18.00;94.00;;;;;;6272953;28;20035;-84
2021/10/25 08:27:33;;;;;;;5.20;3.10;;;17.70;93.40;;;;;;6282910;28;20031;-84
2021/10/25 08:30:34;;;;;;;4.75;3.47;;;17.30;92.60;;;;;;6292823;28;20024;-83
2021/10/25 08:33:50;;;;;;;3.97;3.35;;;;;;;;;;6289321;28;20036;-84
2021/10/25 08:40:08;;;;;;;5.45;3.65;;;15.50;99.90;;;;;;6291051;28;20388;-84
2021/10/25 08:43:08;;;;;;;5.05;3.97;;;15.00;99.90;;;;;;6271487;28;20024;-84
2021/10/25 08:46:09;;;;;;;6.07;4.55;;;15.00;99.90;;;;;;6282546;28;20458;-83
2021/10/25 08:49:11;;;;;;;8.43;4.97;;;14.80;99.90;;;;;;6271641;28;20378;-84
2021/10/25 08:52:12;;;;;;;10.20;7.87;;;15.00;99.90;;;;;;6261933;28;20131;-84
2021/10/25 08:55:16;;;;;;;5.47;4.43;;;17.50;99.90;;;;;;6274412;28;20102;-84
2021/10/25 08:58:18;;;;;;;5.80;4.50;;;15.50;99.90;;;;;;6259203;28;20024;-83
2021/10/25 09:01:26;;;;;;;;;;;16.00;99.90;;;;;;6294171;28;20059;-85
2021/10/25 09:04:26;;;;;;;5.85;4.28;;;16.60;96.90;;;;;;6278598;28;20358;-83
2021/10/25 09:07:27;;;;;;;4.68;4.18;;;17.00;99.90;;;;;;6295337;28;20128;-83
2021/10/25 09:10:33;;;;;;;5.80;4.07;;;16.40;99.90;;;;;;6256111;28;20123;-83
2021/10/25 09:13:34;;;;;;;8.30;4.85;;;;;;;;;;6303797;28;20039;-83
2021/10/25 09:16:44;;;;;;;5.65;5.10;;;15.80;99.90;;;;;;6297322;28;20035;-83
2021/10/25 09:19:47;;;;;;;8.05;4.22;;;15.90;99.90;;;;;;6263389;28;20478;-84
2021/10/25 09:22:48;;;;;;;5.22;3.75;;;15.70;97.40;;;;;;6257875;28;20386;-84
2021/10/25 09:25:56;;;;;;;7.13;3.53;;;15.50;96.90;;;;;;6277913;28;20059;-83
2021/10/25 09:29:01;;;;;;;4.78;3.20;;;15.60;96.30;;;;;;6292170;28;20051;-83
2021/10/25 09:32:13;;;;;;;6.72;3.70;;;15.60;96.30;;;;;;6272702;28;20047;-84
2021/10/25 09:35:17;;;;;;;10.30;3.92;;;15.40;96.60;;;;;;6289471;28;20039;-84
2021/10/25 09:39:26;;;;;;;6.45;3.60;;;15.30;97.40;;;;;;6287215;28;20048;-83
2021/10/25 09:51:57;;;;;;;4.20;3.40;;;15.50;97.70;;;;;;6278556;28;20024;-83
2021/10/25 09:54:59;;;;;;;6.78;4.00;;;15.50;97.40;;;;;;6313357;28;20059;-83
2021/10/25 09:58:16;;;;;;;4.30;3.88;;;15.50;97.20;;;;;;6278490;28;20028;-82
2021/10/25 10:01:22;;;;;;;4.05;3.58;;;15.50;97.80;;;;;;6295228;28;20025;-82
2021/10/25 10:04:23;;;;;;;3.80;3.40;;;15.60;98.50;;;;;;6263057;28;20498;-82
2021/10/25 10:07:27;;;;;;;5.38;3.55;;;15.60;98.50;;;;;;6268629;28;20021;-84
2021/10/25 10:10:28;;;;;;;4.95;3.42;;;16.10;97.70;;;;;;6262317;28;20032;-84
2021/10/25 10:13:29;;;;;;;3.90;3.30;;;16.80;96.60;;;;;;6261406;28;20037;-84
2021/10/25 10:16:29;;;;;;;4.43;3.70;;;17.80;95.00;;;;;;6271480;28;20020;-84
2021/10/25 10:19:31;;;;;;;4.55;3.95;;;18.90;93.40;;;;;;6273613;28;20035;-84
2021/10/25 10:22:33;;;;;;;4.63;3.60;;;19.90;92.00;;;;;;6263188;28;20031;-84
2021/10/25 10:25:35;;;;;;;5.68;3.60;;;20.60;89.70;;;;;;6245718;28;20469;-84
2021/10/25 10:28:36;;;;;;;6.22;3.92;;;21.10;87.70;;;;;;6296176;28;20031;-84
2021/10/25 10:31:37;;;;;;;5.72;4.13;;;21.30;84.40;;;;;;6262355;28;20490;-86
2021/10/25 10:34:39;;;;;;;5.38;3.60;;;21.70;83.00;;;;;;6260878;28;20056;-84
2021/10/25 10:37:41;;;;;;;;;;;22.00;78.70;;;;;;6278611;28;20111;-85
2021/10/25 10:40:42;;;;;;;4.03;3.28;;;22.10;78.20;;;;;;6290478;28;19915;-86
2021/10/25 10:44:03;;;;;;;5.32;3.28;;;22.30;88.20;;;;;;6277118;28;20505;-85
2021/10/25 10:47:12;;;;;;;4.85;3.17;;;22.30;94.00;;;;;;6300742;28;20032;-85
2021/10/25 10:50:21;;;;;;;4.00;3.25;;;22.40;94.30;;;;;;6299988;28;20031;-84
2021/10/25 10:53:28;;;;;;;3.97;3.28;;;22.50;93.80;;;;;;6307352;28;20029;-85
2021/10/25 10:56:53;;;;;;;4.60;3.50;;;22.40;84.20;;;;;;6262606;28;20059;-84
2021/10/25 11:00:00;;;;;;;3.67;3.15;;;22.50;88.40;;;;;;6287338;28;20021;-86
2021/10/25 11:03:07;;;;;;;4.80;3.38;;;22.40;93.30;;;;;;6275835;28;20028;-84
2021/10/25 11:06:16;;;;;;;4.13;3.40;;;22.50;93.30;;;;;;6277206;28;20054;-85
2021/10/25 11:09:17;;;;;;;4.72;3.38;;;22.30;84.20;;;;;;6278353;28;20509;-84
2021/10/25 11:12:20;;;;;;;4.55;3.20;;;22.20;93.10;;;;;;6267475;28;20033;-86
2021/10/25 11:15:21;;;;;;;4.57;3.80;;;22.00;94.20;;;;;;6267347;28;20127;-85
2021/10/25 11:18:43;;;;;;;5.10;4.57;;;21.90;91.20;;;;;;6308474;28;20496;-88
2021/10/25 11:21:46;;;;;;;10.00;6.93;;;21.60;93.60;;;;;;6309838;28;20086;-81
2021/10/25 11:24:50;;;;;;;7.53;6.03;;;21.80;81.30;;;;;;6264615;28;20470;-88
2021/10/25 11:27:53;;;;;;;9.23;6.78;;;21.70;94.60;;;;;;6256836;28;20058;-84
2021/10/25 11:31:02;;;;;;;7.07;5.40;;;21.60;94.40;;;;;;6313009;28;20027;-85
2021/10/25 11:34:10;;;;;;;7.25;5.82;;;22.10;82.40;;;;;;6299697;28;20126;-83
2021/10/25 11:37:17;;;;;;;6.43;5.82;;;21.90;73.60;;;;;;6292203;28;20098;-84
2021/10/25 11:40:22;;;;;;;4.32;3.92;;;21.90;76.20;;;;;;6306357;28;20067;-85
2021/10/25 11:43:29;;;;;;;6.80;4.03;;;22.10;75.60;;;;;;6300475;28;20032;-85
2021/10/25 11:46:30;;;;;;;6.07;4.30;;;22.10;76.00;;;;;;6266542;28;20042;-85
2021/10/25 11:49:34;;;;;;;9.45;4.28;;;22.10;73.50;;;;;;6257651;28;20134;-85
2021/10/25 11:52:44;;;;;;;5.60;4.38;;;22.00;76.10;;;;;;6256828;28;20736;-86
2021/10/25 11:55:45;;;;;;;5.32;3.75;;;21.90;75.40;;;;;;6272248;28;20049;-85
2021/10/25 11:58:45;;;;;;;6.10;3.88;;;21.90;76.40;;;;;;6298613;28;20493;-88
2021/10/25 12:01:47;;;;;;;4.07;3.67;;;21.80;77.40;;;;;;6273460;28;20469;-85
2021/10/25 12:04:47;;;;;;;5.30;4.13;;;21.80;76.00;;;;;;6261552;28;20025;-84
2021/10/25 12:07:48;;;;;;;5.32;4.22;;;21.80;78.80;;;;;;6257357;28;20037;-85
2021/10/25 12:10:49;;;;;;;4.85;3.58;;;21.70;77.70;;;;;;6257360;28;20425;-83
2021/10/25 12:13:59;;;;;;;5.50;4.43;;;21.50;76.60;;;;;;6275342;28;20052;-85
2021/10/25 12:17:00;;;;;;;5.60;4.22;;;21.50;76.20;;;;;;6258621;28;20477;-85
2021/10/25 12:20:01;;;;;;;4.25;3.60;;;21.40;78.10;;;;;;6258438;28;20028;-83
2021/10/25 12:23:08;;;;;;;4.55;3.92;;;21.30;77.80;;;;;;6275598;28;20085;-86
2021/10/25 12:26:09;;;;;;;5.65;3.40;;;21.30;78.00;;;;;;6281139;28;20442;-85
2021/10/25 12:29:16;;;;;;;5.78;4.05;;;21.20;77.30;;;;;;6259431;28;20032;-83
2021/10/25 12:32:17;;;;;;;6.47;4.63;;;21.10;75.30;;;;;;6267405;28;20025;-82
2021/10/25 12:35:35;;;;;;;6.40;4.10;;;21.00;77.80;;;;;;6274853;28;20097;-81
2021/10/25 12:38:40;;;;;;;5.28;4.70;;;20.90;76.00;;;;;;6287717;28;20444;-83
2021/10/25 12:41:48;;;;;;;6.70;4.32;;;20.60;75.10;;;;;;6260637;28;20025;-82
2021/10/25 12:44:52;;;;;;;6.93;3.80;;;20.30;78.30;;;;;;6291271;28;20409;-83
2021/10/25 12:47:57;;;;;;;5.43;3.95;;;20.30;78.50;;;;;;6298435;28;20086;-83
2021/10/25 12:51:02;;;;;;;4.10;3.70;;;20.30;79.50;;;;;;6287520;28;20028;-83
2021/10/25 12:54:11;;;;;;;5.45;4.40;;;20.40;80.10;;;;;;6258583;28;20040;-84
2021/10/25 12:57:26;;;;;;;7.18;4.15;;;20.40;79.50;;;;;;6261063;28;20369;-82
2021/10/25 13:00:27;;;;;;;7.47;4.85;;;20.50;80.70;;;;;;6271896;28;20045;-82
2021/10/25 13:03:28;;;;;;;4.97;3.92;;;20.20;81.90;;;;;;6262892;28;20055;-83
2021/10/25 13:06:34;;;;;;;5.38;4.18;;;20.50;82.50;;;;;;6275901;28;20032;-90
2021/10/25 13:09:48;;;;;;;6.32;4.00;;;20.40;82.50;;;;;;6269470;28;20039;-89
2021/10/25 13:12:49;;;;;;;5.70;4.32;;;20.00;92.70;;;;;;6295755;28;20043;-83
2021/10/25 13:15:50;;;;;;;5.13;4.20;;;20.30;81.60;;;;;;6290503;28;20028;-86
2021/10/25 13:18:50;;;;;;;5.70;4.28;;;20.30;81.10;;;;;;6275660;28;20117;-83
2021/10/25 13:21:51;;;;;;;4.95;4.20;;;20.30;82.40;;;;;;6300961;28;20025;-84
2021/10/25 13:24:51;;;;;;;7.25;4.05;;;20.20;82.10;;;;;;6301838;28;20106;-82
2021/10/25 13:27:52;;;;;;;6.43;4.80;;;20.20;81.00;;;;;;6290019;28;20140;-81
2021/10/25 13:30:53;;;;;;;6.78;4.60;;;20.10;82.20;;;;;;6285351;28;20025;-83
2021/10/25 13:33:54;;;;;;;6.43;4.47;;;20.00;81.90;;;;;;6290326;28;20036;-86
2021/10/25 13:36:55;;;;;;;5.05;4.30;;;19.90;94.70;;;;;;6270791;28;20025;-84
2021/10/25 13:39:56;;;;;;;5.22;4.38;;;19.90;99.90;;;;;;6257985;28;20032;-84
2021/10/25 13:42:57;;;;;;;6.45;4.50;;;19.70;94.40;;;;;;6279344;28;20024;-84
2021/10/25 13:45:58;;;;;;;5.95;3.97;;;;;;;;;;6298862;28;20086;-82
2021/10/25 13:48:59;;;;;;;8.48;4.53;;;19.30;99.90;;;;;;6310301;28;20031;-84
2021/10/25 13:52:00;;;;;;;8.07;4.47;;;;;;;;;;6269988;28;20458;-83
2021/10/25 13:55:02;;;;;;;6.80;4.57;;;19.40;95.10;;;;;;6261742;28;20139;-84
2021/10/25 13:58:04;;;;;;;6.05;4.28;;;;;;;;;;6303147;28;20027;-83
2021/10/25 14:01:05;;;;;;;5.03;3.87;;;;;;;;;;6304100;28;20477;-82
2021/10/25 14:04:08;;;;;;;8.80;4.65;;;;;;;;;;6297071;28;20118;-83
2021/10/25 14:07:14;;;;;;;5.22;4.32;;;;;;;;;;6285445;28;20032;-84
2021/10/25 14:10:51;;;;;;;7.13;4.32;;;18.80;93.80;;;;;;6288142;28;20108;-83
2021/10/25 14:14:30;;;;;;;7.78;4.20;;;18.80;96.00;;;;;;6288197;28;20118;-83
2021/10/25 14:17:04;;;;;;;5.82;3.85;;;19.00;97.50;;;;;;6279682;28;20047;-85
2021/10/25 14:20:06;;;;;;;5.40;4.10;;;18.70;99.90;;;;;;6291706;28;20020;-82
2021/10/25 14:23:09;;;;;;;9.23;4.15;;;18.70;99.90;;;;;;6281638;28;20028;-82
2021/10/25 14:26:10;;;;;;;5.53;4.25;;;18.80;96.70;;;;;;6269995;28;20032;-84
2021/10/25 14:29:12;;;;;;;6.73;4.20;;;18.50;96.60;;;;;;6268293;28;20027;-84
2021/10/25 14:32:12;;;;;;;4.47;4.07;;;18.50;98.80;;;;;;6294089;28;20035;-86
2021/10/25 14:35:13;;;;;;;4.97;4.47;;;;;;;;;;6276714;28;20477;-84
2021/10/25 14:38:28;;;;;;;6.35;4.13;;;18.20;99.90;;;;;;6278721;28;20125;-83
2021/10/25 14:41:54;;;;;;;6.07;4.35;;;;;;;;;;6303356;28;20080;-84
2021/10/25 14:44:57;;;;;;;4.60;4.05;;;;;;;;;;6291683;28;20028;-82
2021/10/25 14:54:21;;;;;;;5.75;3.63;;;17.80;97.00;;;;;;6291213;28;20044;-84
2021/10/25 14:57:22;;;;;;;4.32;3.50;;;17.70;97.30;;;;;;6285891;28;20055;-83
2021/10/25 15:00:23;;;;;;;4.68;3.80;;;17.80;90.20;;;;;;6280940;28;20490;-82
2021/10/25 15:03:24;;;;;;;4.72;4.05;;;17.80;89.20;;;;;;6283142;28;20086;-84
2021/10/25 15:06:25;;;;;;;6.20;4.60;;;18.10;96.30;;;;;;6289120;28;20028;-84
2021/10/25 15:09:25;;;;;;;4.97;4.35;;;17.70;96.50;;;;;;6287304;28;20035;-83
2021/10/25 15:12:28;;;;;;;5.25;4.35;;;17.70;89.00;;;;;;6275902;28;20024;-80
2021/10/25 15:15:29;;;;;;;5.07;4.10;;;17.60;88.60;;;;;;6285802;28;20036;-83
2021/10/25 15:18:29;;;;;;;5.10;4.25;;;17.50;88.60;;;;;;6273104;28;20113;-84
2021/10/25 15:21:41;;;;;;;7.85;4.85;;;17.60;88.40;;;;;;6276561;28;20078;-83
2021/10/25 15:24:47;;;;;;;7.05;4.65;;;18.60;92.30;;;;;;6268964;28;20028;-83
2021/10/25 15:27:47;;;;;;;7.88;5.15;;;17.30;93.60;;;;;;6276392;28;20043;-83
2021/10/25 15:30:48;;;;;;;9.88;5.22;;;17.00;94.90;;;;;;6275741;28;20024;-84
2021/10/25 15:33:49;;;;;;;6.10;5.03;;;16.90;95.50;;;;;;6259883;28;20078;-83
2021/10/25 15:36:49;;;;;;;6.90;4.60;;;16.70;96.60;;;;;;6275930;28;20037;-85
2021/10/25 15:39:50;;;;;;;8.75;4.40;;;16.50;95.50;;;;;;6265568;28;20032;-84
2021/10/25 15:42:51;;;;;;;5.22;4.05;;;16.20;95.80;;;;;;6276223;28;20040;-85
2021/10/25 15:45:54;;;;;;;5.45;4.32;;;;;;;;;;6267618;28;20035;-84
2021/10/25 15:48:55;;;;;;;5.05;4.50;;;15.90;95.90;;;;;;6312150;28;20508;-83
2021/10/25 15:51:56;;;;;;;9.60;5.13;;;15.70;98.00;;;;;;6264278;28;20028;-83
2021/10/25 15:54:56;;;;;;;7.25;5.00;;;15.60;98.40;;;;;;6283342;28;20060;-83
2021/10/25 15:57:57;;;;;;;7.43;5.28;;;15.40;99.90;;;;;;6283325;28;20028;-81
2021/10/25 16:00:58;;;;;;;8.43;4.93;;;15.20;99.40;;;;;;6302541;28;20032;-85
2021/10/25 16:03:59;;;;;;;9.02;5.25;;;15.10;99.90;;;;;;6271162;28;20028;-83
2021/10/25 16:07:01;;;;;;;10.52;4.93;;;15.00;99.90;;;;;;6282413;28;20070;-83
2021/10/25 16:10:03;;;;;;;6.93;5.05;;;14.90;99.90;;;;;;6277887;28;20038;-84
2021/10/25 16:13:24;;;;;;;11.38;5.70;;;14.50;99.90;;;;;;6310440;28;20024;-83
2021/10/25 16:16:24;;;;;;;7.72;5.55;;;14.20;99.90;;;;;;6274336;28;20039;-85
2021/10/25 16:19:26;;;;;;;9.70;6.47;;;;;;;;;;6275202;28;20060;-82
2021/10/25 16:22:27;;;;;;;9.50;5.93;;;;;;;;;;6268852;28;20020;-84
2021/10/25 16:25:28;;;;;;;10.55;7.13;;;;;;;;;;6307495;28;20111;-84
2021/10/25 16:28:29;;;;;;;13.57;9.88;;;13.80;99.90;;;;;;6259861;28;20457;-87
2021/10/25 16:31:30;;;;;;;14.27;8.70;;;13.70;99.90;;;;;;6258881;28;20025;-84
2021/10/25 16:34:31;;;;;;;12.20;8.45;;;;;;;;;;6264949;28;20039;-85
2021/10/25 16:37:32;;;;;;;12.15;8.55;;;;;;;;;;6290847;28;20032;-84
2021/10/25 16:40:33;;;;;;;10.45;6.85;;;13.40;99.90;;;;;;6290407;28;20021;-85
2021/10/25 16:43:33;;;;;;;9.00;6.75;;;13.00;99.90;;;;;;6255074;28;20035;-82
2021/10/25 16:46:34;;;;;;;11.48;8.50;;;;;;;;;;6272001;28;20455;-82
2021/10/25 16:49:41;;;;;;;12.02;9.30;;;13.00;99.90;;;;;;6287794;28;20018;-86
2021/10/25 16:52:51;;;;;;;11.27;8.35;;;;;;;;;;6275146;28;20036;-86
2021/10/25 17:12:39;;;;;;;9.05;7.10;;;11.50;99.90;;;;;;6253101;28;20107;-86
2021/10/25 17:15:40;;;;;;;9.23;7.03;;;;;;;;;;6247108;28;20652;-84
2021/10/25 17:18:41;;;;;;;9.80;7.97;;;;;;;;;;6255270;28;20055;-82
2021/10/25 17:21:46;;;;;;;10.95;7.28;;;;;;;;;;6251001;28;20497;-83
2021/10/25 17:24:46;;;;;;;11.35;7.93;;;;;;;;;;6256406;28;20550;-84
2021/10/25 17:27:47;;;;;;;9.73;7.95;;;;;;;;;;6248497;28;20036;-83
2021/10/25 17:30:51;;;;;;;10.68;8.13;;;11.30;99.90;;;;;;6257545;28;20040;-84
2021/10/25 17:33:54;;;;;;;11.60;8.32;;;;;;;;;;6254489;28;20157;-85
2021/10/25 17:36:57;;;;;;;10.88;7.45;;;11.50;99.90;;;;;;6239875;28;20040;-81
2021/10/25 17:39:58;;;;;;;9.82;7.60;;;;;;;;;;6221708;28;20039;-83
2021/10/25 17:43:06;;;;;;;13.75;8.43;;;;;;;;;;6271352;28;20060;-81
2021/10/25 17:46:07;;;;;;;17.10;10.15;;;;;;;;;;6254987;28;20035;-87
2021/10/25 17:49:08;;;;;;;8.68;7.47;;;;;;;;;;6284441;28;20051;-82
2021/10/25 17:52:11;;;;;;;9.23;6.70;;;;;;;;;;6295304;28;20024;-82
2021/10/25 17:55:13;;;;;;;7.18;6.40;;;10.90;99.90;;;;;;6278572;28;20068;-82
2021/10/25 17:58:15;;;;;;;10.48;6.75;;;;;;;;;;6278682;28;20057;-84
2021/10/25 18:01:16;;;;;;;9.55;6.80;;;;;;;;;;6300136;28;20077;-82
2021/10/25 18:04:17;;;;;;;8.43;6.93;;;10.40;99.90;;;;;;6304083;28;20102;-81
2021/10/25 18:07:19;;;;;;;9.40;7.55;;;10.40;99.90;;;;;;6274026;28;20035;-81
2021/10/25 18:10:20;;;;;;;9.82;7.90;;;10.40;99.90;;;;;;6262135;28;20036;-81
2021/10/25 18:13:22;;;;;;;9.45;7.75;;;10.30;99.90;;;;;;6295095;28;20044;-82
2021/10/25 18:16:23;;;;;;;12.53;7.50;;;10.40;99.90;;;;;;6279952;28;20428;-79
2021/10/25 18:19:23;;;;;;;10.05;6.50;;;10.40;99.90;;;;;;6261893;28;20086;-80
2021/10/25 18:22:24;;;;;;;7.78;6.60;;;10.30;99.90;;;;;;6289277;28;20029;-80
2021/10/25 18:25:25;;;;;;;12.10;7.20;;;10.00;99.90;;;;;;6271074;28;20759;-82
2021/10/25 18:28:27;;;;;;;7.72;6.93;;;10.30;99.90;;;;;;6262327;28;20020;-80
2021/10/25 18:31:28;;;;;;;10.50;6.80;;;10.10;99.90;;;;;;6263391;28;20028;-81
2021/10/25 18:34:29;;;;;;;9.30;6.82;;;10.30;99.90;;;;;;6289577;28;20150;-80